sensor_id;sensor_type;location;lat;lon;timestamp;pressure;altitude;pressure_sealevel;temperature;humidity
14689;BME280;7432;48.728;9.154;2023-04-30T00:01:53;144661.50;;;11.62;88.03
14689;BME280;7432;48.728;9.154;2023-04-30T00:04:21;144660.28;;;11.61;88.13
14689;BME280;7432;48.728;9.154;2023-04-30T00:06:48;144655.44;;;11.59;88.01
14689;BME280;7432;48.728;9.154;2023-04-30T00:09:14;144639.75;;;11.53;88.39
14689;BME280;7432;48.728;9.154;2023-04-30T00:11:40;144621.53;;;11.45;88.66
14689;BME280;7432;48.728;9.154;2023-04-30T00:14:07;144598.56;;;11.36;89.19
14689;BME280;7432;48.728;9.154;2023-04-30T00:16:34;144627.59;;;11.48;88.57
14689;BME280;7432;48.728;9.154;2023-04-30T00:19:00;144630.03;;;11.49;88.62
14689;BME280;7432;48.728;9.154;2023-04-30T00:21:28;144626.41;;;11.47;88.45
14689;BME280;7432;48.728;9.154;2023-04-30T00:23:54;144603.38;;;11.38;88.38
14689;BME280;7432;48.728;9.154;2023-04-30T00:26:20;144586.44;;;11.30;87.99
14689;BME280;7432;48.728;9.154;2023-04-30T00:28:47;144571.91;;;11.24;88.62
14689;BME280;7432;48.728;9.154;2023-04-30T00:31:13;144576.75;;;11.26;89.11
14689;BME280;7432;48.728;9.154;2023-04-30T00:33:39;144586.44;;;11.30;89.66
14689;BME280;7432;48.728;9.154;2023-04-30T00:36:06;144559.81;;;11.19;88.86
14689;BME280;7432;48.728;9.154;2023-04-30T00:38:34;144575.53;;;11.26;88.42
14689;BME280;7432;48.728;9.154;2023-04-30T00:41:00;144534.41;;;11.09;89.26
14689;BME280;7432;48.728;9.154;2023-04-30T00:43:27;144554.94;;;11.17;88.84
14689;BME280;7432;48.728;9.154;2023-04-30T00:45:53;144547.72;;;11.14;88.71
14689;BME280;7432;48.728;9.154;2023-04-30T00:48:20;144558.59;;;11.19;88.35
14689;BME280;7432;48.728;9.154;2023-04-30T00:50:46;144561.03;;;11.20;87.98
14689;BME280;7432;48.728;9.154;2023-04-30T00:53:13;144548.88;;;11.15;88.65
14689;BME280;7432;48.728;9.154;2023-04-30T00:55:42;144550.09;;;11.15;89.00
14689;BME280;7432;48.728;9.154;2023-04-30T00:58:09;144565.88;;;11.22;88.41
14689;BME280;7432;48.728;9.154;2023-04-30T01:00:35;144545.28;;;11.13;88.34
14689;BME280;7432;48.728;9.154;2023-04-30T01:03:02;144545.28;;;11.13;88.61
14689;BME280;7432;48.728;9.154;2023-04-30T01:05:29;144545.28;;;11.13;88.27
14689;BME280;7432;48.728;9.154;2023-04-30T01:07:56;144559.81;;;11.19;88.12
14689;BME280;7432;48.728;9.154;2023-04-30T01:10:29;144556.16;;;11.18;87.50
14689;BME280;7432;48.728;9.154;2023-04-30T01:13:08;144533.16;;;11.08;88.18
14689;BME280;7432;48.728;9.154;2023-04-30T01:15:44;144552.53;;;11.16;88.07
14689;BME280;7432;48.728;9.154;2023-04-30T01:18:14;144550.09;;;11.15;88.06
14689;BME280;7432;48.728;9.154;2023-04-30T01:20:48;144539.22;;;11.11;88.18
14689;BME280;7432;48.728;9.154;2023-04-30T01:23:27;144512.59;;;11.00;88.70
14689;BME280;7432;48.728;9.154;2023-04-30T01:26:06;144502.88;;;10.96;88.56
14689;BME280;7432;48.728;9.154;2023-04-30T01:28:39;144492.00;;;10.91;89.02
14689;BME280;7432;48.728;9.154;2023-04-30T01:31:11;144496.84;;;10.93;89.59
14689;BME280;7432;48.728;9.154;2023-04-30T01:33:38;144502.88;;;10.96;89.88
14689;BME280;7432;48.728;9.154;2023-04-30T01:36:29;144512.59;;;11.00;89.17
14689;BME280;7432;48.728;9.154;2023-04-30T01:42:02;144461.75;;;10.79;89.53
14689;BME280;7432;48.728;9.154;2023-04-30T01:44:56;144481.13;;;10.87;88.76
14689;BME280;7432;48.728;9.154;2023-04-30T01:47:32;144469.03;;;10.82;89.14
14689;BME280;7432;48.728;9.154;2023-04-30T01:50:07;144489.56;;;10.90;88.66
14689;BME280;7432;48.728;9.154;2023-04-30T01:52:39;144461.75;;;10.79;88.59
14689;BME280;7432;48.728;9.154;2023-04-30T01:55:09;144470.19;;;10.82;88.25
14689;BME280;7432;48.728;9.154;2023-04-30T01:57:38;144475.06;;;10.84;88.54
14689;BME280;7432;48.728;9.154;2023-04-30T02:00:08;144479.91;;;10.86;86.94
14689;BME280;7432;48.728;9.154;2023-04-30T02:02:35;144461.75;;;10.79;87.71
14689;BME280;7432;48.728;9.154;2023-04-30T02:05:02;144467.81;;;10.81;87.99
14689;BME280;7432;48.728;9.154;2023-04-30T02:07:36;144473.84;;;10.84;87.94
14689;BME280;7432;48.728;9.154;2023-04-30T02:10:04;144462.97;;;10.79;87.19
14689;BME280;7432;48.728;9.154;2023-04-30T02:12:30;144447.22;;;10.73;87.65
14689;BME280;7432;48.728;9.154;2023-04-30T02:14:57;144448.44;;;10.73;87.12
14689;BME280;7432;48.728;9.154;2023-04-30T02:17:24;144456.88;;;10.77;87.38
14689;BME280;7432;48.728;9.154;2023-04-30T02:19:51;144453.28;;;10.75;87.43
14689;BME280;7432;48.728;9.154;2023-04-30T02:22:17;144430.31;;;10.65;87.70
14689;BME280;7432;48.728;9.154;2023-04-30T02:24:44;144433.91;;;10.67;88.17
14689;BME280;7432;48.728;9.154;2023-04-30T02:27:10;144420.59;;;10.61;88.12
14689;BME280;7432;48.728;9.154;2023-04-30T02:29:36;144444.78;;;10.71;87.79
14689;BME280;7432;48.728;9.154;2023-04-30T02:32:03;144389.16;;;10.48;87.82
14689;BME280;7432;48.728;9.154;2023-04-30T02:34:31;144412.13;;;10.58;88.25
14689;BME280;7432;48.728;9.154;2023-04-30T02:36:57;144425.44;;;10.63;88.60
14689;BME280;7432;48.728;9.154;2023-04-30T02:39:23;144443.56;;;10.71;88.65
14689;BME280;7432;48.728;9.154;2023-04-30T02:41:50;144404.84;;;10.55;87.85
14689;BME280;7432;48.728;9.154;2023-04-30T02:44:16;144419.38;;;10.61;88.60
14689;BME280;7432;48.728;9.154;2023-04-30T02:46:43;144402.47;;;10.54;88.51
14689;BME280;7432;48.728;9.154;2023-04-30T02:49:09;144402.47;;;10.54;88.54
14689;BME280;7432;48.728;9.154;2023-04-30T02:51:37;144414.56;;;10.59;88.53
14689;BME280;7432;48.728;9.154;2023-04-30T02:54:03;144406.06;;;10.55;88.17
14689;BME280;7432;48.728;9.154;2023-04-30T02:56:29;144412.13;;;10.58;87.98
14689;BME280;7432;48.728;9.154;2023-04-30T02:58:56;144401.25;;;10.53;88.13
14689;BME280;7432;48.728;9.154;2023-04-30T03:01:22;144409.72;;;10.57;88.30
14689;BME280;7432;48.728;9.154;2023-04-30T03:03:49;144408.50;;;10.56;88.84
14689;BME280;7432;48.728;9.154;2023-04-30T03:06:15;144401.25;;;10.53;88.96
14689;BME280;7432;48.728;9.154;2023-04-30T03:08:43;144398.81;;;10.52;89.05
14689;BME280;7432;48.728;9.154;2023-04-30T03:11:09;144397.59;;;10.52;89.23
14689;BME280;7432;48.728;9.154;2023-04-30T03:13:35;144383.09;;;10.46;89.72
14689;BME280;7432;48.728;9.154;2023-04-30T03:16:03;144385.50;;;10.47;89.79
14689;BME280;7432;48.728;9.154;2023-04-30T03:18:29;144384.31;;;10.46;89.75
14689;BME280;7432;48.728;9.154;2023-04-30T03:20:56;144389.16;;;10.48;89.55
14689;BME280;7432;48.728;9.154;2023-04-30T03:23:22;144379.44;;;10.44;89.30
14689;BME280;7432;48.728;9.154;2023-04-30T03:25:50;144369.78;;;10.40;88.81
14689;BME280;7432;48.728;9.154;2023-04-30T03:28:17;144363.75;;;10.38;89.26
14689;BME280;7432;48.728;9.154;2023-04-30T03:30:43;144362.53;;;10.37;89.59
14689;BME280;7432;48.728;9.154;2023-04-30T03:33:09;144368.56;;;10.40;90.18
14689;BME280;7432;48.728;9.154;2023-04-30T03:35:36;144369.78;;;10.40;89.66
14689;BME280;7432;48.728;9.154;2023-04-30T03:38:02;144373.41;;;10.42;89.79
14689;BME280;7432;48.728;9.154;2023-04-30T03:40:28;144372.19;;;10.41;90.23
14689;BME280;7432;48.728;9.154;2023-04-30T03:42:56;144377.06;;;10.43;90.48
14689;BME280;7432;48.728;9.154;2023-04-30T03:45:22;144368.56;;;10.40;90.52
14689;BME280;7432;48.728;9.154;2023-04-30T03:47:49;144362.53;;;10.37;90.58
14689;BME280;7432;48.728;9.154;2023-04-30T03:50:17;144372.19;;;10.41;90.92
14689;BME280;7432;48.728;9.154;2023-04-30T03:52:43;144378.22;;;10.44;90.41
14689;BME280;7432;48.728;9.154;2023-04-30T03:55:10;144360.09;;;10.36;89.55
14689;BME280;7432;48.728;9.154;2023-04-30T03:57:36;144367.34;;;10.39;89.91
14689;BME280;7432;48.728;9.154;2023-04-30T04:00:07;144372.19;;;10.41;89.84
14689;BME280;7432;48.728;9.154;2023-04-30T04:02:34;144345.56;;;10.30;90.16
14689;BME280;7432;48.728;9.154;2023-04-30T04:05:01;144348.00;;;10.31;90.54
14689;BME280;7432;48.728;9.154;2023-04-30T04:07:28;144357.69;;;10.35;90.60
14689;BME280;7432;48.728;9.154;2023-04-30T04:09:54;144333.47;;;10.25;90.31
14689;BME280;7432;48.728;9.154;2023-04-30T04:12:21;144344.38;;;10.30;90.67
14689;BME280;7432;48.728;9.154;2023-04-30T04:14:47;144335.91;;;10.26;91.21
14689;BME280;7432;48.728;9.154;2023-04-30T04:17:15;144339.50;;;10.28;90.63
14689;BME280;7432;48.728;9.154;2023-04-30T04:19:41;144338.34;;;10.27;90.34
14689;BME280;7432;48.728;9.154;2023-04-30T04:22:08;144364.91;;;10.38;90.12
14689;BME280;7432;48.728;9.154;2023-04-30T04:24:34;144361.31;;;10.37;89.95
14689;BME280;7432;48.728;9.154;2023-04-30T04:27:00;144361.31;;;10.37;90.17
14689;BME280;7432;48.728;9.154;2023-04-30T04:29:27;144356.47;;;10.35;90.00
14689;BME280;7432;48.728;9.154;2023-04-30T04:31:54;144360.09;;;10.36;90.03
14689;BME280;7432;48.728;9.154;2023-04-30T04:34:22;144364.91;;;10.38;89.24
14689;BME280;7432;48.728;9.154;2023-04-30T04:36:48;144381.88;;;10.45;88.19
14689;BME280;7432;48.728;9.154;2023-04-30T04:39:15;144371.00;;;10.41;88.72
14689;BME280;7432;48.728;9.154;2023-04-30T04:41:42;144362.53;;;10.37;88.52
14689;BME280;7432;48.728;9.154;2023-04-30T04:44:08;144374.63;;;10.42;88.48
14689;BME280;7432;48.728;9.154;2023-04-30T04:46:34;144379.44;;;10.44;88.60
14689;BME280;7432;48.728;9.154;2023-04-30T04:49:02;144387.94;;;10.48;88.67
14689;BME280;7432;48.728;9.154;2023-04-30T04:51:30;144381.88;;;10.45;87.74
14689;BME280;7432;48.728;9.154;2023-04-30T04:53:57;144358.88;;;10.36;87.63
14689;BME280;7432;48.728;9.154;2023-04-30T04:56:23;144401.25;;;10.53;87.48
14689;BME280;7432;48.728;9.154;2023-04-30T04:58:49;144362.53;;;10.37;87.56
14689;BME280;7432;48.728;9.154;2023-04-30T05:01:16;144371.00;;;10.41;87.33
14689;BME280;7432;48.728;9.154;2023-04-30T05:03:42;144418.16;;;10.60;86.59
14689;BME280;7432;48.728;9.154;2023-04-30T05:06:09;144462.97;;;10.79;86.21
14689;BME280;7432;48.728;9.154;2023-04-30T05:08:36;144438.75;;;10.69;85.08
14689;BME280;7432;48.728;9.154;2023-04-30T05:11:03;144459.31;;;10.78;85.00
14689;BME280;7432;48.728;9.154;2023-04-30T05:13:29;144470.19;;;10.82;84.51
14689;BME280;7432;48.728;9.154;2023-04-30T05:15:55;144489.56;;;10.90;84.01
14689;BME280;7432;48.728;9.154;2023-04-30T05:18:22;144489.56;;;10.90;84.20
14689;BME280;7432;48.728;9.154;2023-04-30T05:20:48;144511.38;;;10.99;83.22
14689;BME280;7432;48.728;9.154;2023-04-30T05:23:15;144551.31;;;11.16;82.43
14689;BME280;7432;48.728;9.154;2023-04-30T05:25:42;144613.09;;;11.42;82.22
14689;BME280;7432;48.728;9.154;2023-04-30T05:28:09;144623.97;;;11.46;80.47
14689;BME280;7432;48.728;9.154;2023-04-30T05:30:36;144699.13;;;11.77;79.62
14689;BME280;7432;48.728;9.154;2023-04-30T05:33:02;144765.72;;;12.05;78.41
14689;BME280;7432;48.728;9.154;2023-04-30T05:35:29;144829.97;;;12.32;77.51
14689;BME280;7432;48.728;9.154;2023-04-30T05:37:55;144843.31;;;12.37;76.52
14689;BME280;7432;48.728;9.154;2023-04-30T05:40:22;144731.84;;;11.91;78.62
14689;BME280;7432;48.728;9.154;2023-04-30T05:42:50;144728.19;;;11.89;79.23
14689;BME280;7432;48.728;9.154;2023-04-30T05:45:16;144757.28;;;12.02;78.26
14689;BME280;7432;48.728;9.154;2023-04-30T05:47:42;144799.66;;;12.19;77.27
14689;BME280;7432;48.728;9.154;2023-04-30T05:50:09;144754.84;;;12.01;78.28
14689;BME280;7432;48.728;9.154;2023-04-30T05:52:35;144854.19;;;12.42;76.30
14689;BME280;7432;48.728;9.154;2023-04-30T05:55:02;144947.53;;;12.81;75.96
14689;BME280;7432;48.728;9.154;2023-04-30T05:57:28;145021.50;;;13.12;74.17
14689;BME280;7432;48.728;9.154;2023-04-30T05:59:56;145003.28;;;13.04;73.31
14689;BME280;7432;48.728;9.154;2023-04-30T06:02:22;145124.63;;;13.54;72.59
14689;BME280;7432;48.728;9.154;2023-04-30T06:04:49;145170.72;;;13.74;70.94
14689;BME280;7432;48.728;9.154;2023-04-30T06:07:15;145230.16;;;13.98;69.86
14689;BME280;7432;48.728;9.154;2023-04-30T06:09:41;145232.56;;;13.99;69.16
14689;BME280;7432;48.728;9.154;2023-04-30T06:12:08;145152.47;;;13.66;70.07
14689;BME280;7432;48.728;9.154;2023-04-30T06:14:35;145140.34;;;13.61;71.49
14689;BME280;7432;48.728;9.154;2023-04-30T06:17:03;145112.50;;;13.49;70.34
14689;BME280;7432;48.728;9.154;2023-04-30T06:19:29;145281.13;;;14.19;68.65
14689;BME280;7432;48.728;9.154;2023-04-30T06:21:56;145462.00;;;14.95;65.54
14689;BME280;7432;48.728;9.154;2023-04-30T06:24:22;145536.09;;;15.25;64.76
14689;BME280;7432;48.728;9.154;2023-04-30T06:26:51;145664.94;;;15.79;61.86
14689;BME280;7432;48.728;9.154;2023-04-30T06:29:17;145870.38;;;16.64;59.29
14689;BME280;7432;48.728;9.154;2023-04-30T06:31:44;145756.09;;;16.17;60.03
14689;BME280;7432;48.728;9.154;2023-04-30T06:34:12;145643.06;;;15.70;60.97
14689;BME280;7432;48.728;9.154;2023-04-30T06:36:38;145605.41;;;15.54;61.24
14689;BME280;7432;48.728;9.154;2023-04-30T06:39:04;145539.78;;;15.27;62.03
14689;BME280;7432;48.728;9.154;2023-04-30T06:41:31;145432.91;;;14.82;64.30
14689;BME280;7432;48.728;9.154;2023-04-30T06:43:57;145408.63;;;14.72;65.13
14689;BME280;7432;48.728;9.154;2023-04-30T06:46:23;145404.97;;;14.71;64.70
14689;BME280;7432;48.728;9.154;2023-04-30T06:48:50;145540.94;;;15.27;63.51
14689;BME280;7432;48.728;9.154;2023-04-30T06:51:18;145578.66;;;15.43;62.29
14689;BME280;7432;48.728;9.154;2023-04-30T06:53:44;145697.75;;;15.92;61.68
14689;BME280;7432;48.728;9.154;2023-04-30T06:56:10;145858.22;;;16.59;59.27
14689;BME280;7432;48.728;9.154;2023-04-30T06:58:37;146191.56;;;17.97;56.02
14689;BME280;7432;48.728;9.154;2023-04-30T07:01:03;146248.78;;;18.21;53.40
14689;BME280;7432;48.728;9.154;2023-04-30T07:03:30;146392.47;;;18.80;53.03
14689;BME280;7432;48.728;9.154;2023-04-30T07:05:57;146574.03;;;19.56;50.77
14689;BME280;7432;48.728;9.154;2023-04-30T07:08:25;146728.78;;;20.20;47.58
14689;BME280;7432;48.728;9.154;2023-04-30T07:10:51;146804.44;;;20.51;47.06
14689;BME280;7432;48.728;9.154;2023-04-30T07:13:18;146872.75;;;20.79;46.87
14689;BME280;7432;48.728;9.154;2023-04-30T07:15:44;147122.84;;;21.82;44.67
14689;BME280;7432;48.728;9.154;2023-04-30T07:18:10;147024.03;;;21.42;44.36
14689;BME280;7432;48.728;9.154;2023-04-30T07:20:37;146923.94;;;21.00;44.91
14689;BME280;7432;48.728;9.154;2023-04-30T07:23:03;146649.56;;;19.87;48.11
14689;BME280;7432;48.728;9.154;2023-04-30T07:25:31;146850.78;;;20.70;46.13
14689;BME280;7432;48.728;9.154;2023-04-30T07:27:57;147003.28;;;21.33;45.58
14689;BME280;7432;48.728;9.154;2023-04-30T07:30:24;147047.19;;;21.51;44.96
14689;BME280;7432;48.728;9.154;2023-04-30T07:32:50;147093.56;;;21.70;43.79
14689;BME280;7432;48.728;9.154;2023-04-30T07:35:16;147249.81;;;22.35;42.75
14689;BME280;7432;48.728;9.154;2023-04-30T07:37:43;147419.63;;;23.05;41.25
14689;BME280;7432;48.728;9.154;2023-04-30T07:40:10;147534.47;;;23.52;40.29
14689;BME280;7432;48.728;9.154;2023-04-30T07:42:39;147885.44;;;24.97;38.10
14689;BME280;7432;48.728;9.154;2023-04-30T07:45:07;148070.19;;;25.73;37.07
14689;BME280;7432;48.728;9.154;2023-04-30T07:47:33;148083.66;;;25.79;36.13
14689;BME280;7432;48.728;9.154;2023-04-30T07:50:00;147945.31;;;25.22;35.33
14689;BME280;7432;48.728;9.154;2023-04-30T07:52:27;147780.19;;;24.54;36.37
14689;BME280;7432;48.728;9.154;2023-04-30T07:54:53;147736.19;;;24.36;37.38
14689;BME280;7432;48.728;9.154;2023-04-30T07:57:20;147809.56;;;24.66;37.47
14689;BME280;7432;48.728;9.154;2023-04-30T07:59:47;147690.97;;;24.17;37.17
14689;BME280;7432;48.728;9.154;2023-04-30T08:02:14;147197.31;;;22.13;40.76
14689;BME280;7432;48.728;9.154;2023-04-30T08:04:40;147016.69;;;21.39;42.90
14689;BME280;7432;48.728;9.154;2023-04-30T08:07:07;146906.84;;;20.93;43.36
14689;BME280;7432;48.728;9.154;2023-04-30T08:09:33;146636.16;;;19.81;46.46
14689;BME280;7432;48.728;9.154;2023-04-30T08:11:59;146497.22;;;19.24;47.45
14689;BME280;7432;48.728;9.154;2023-04-30T08:14:26;146606.94;;;19.69;46.87
14689;BME280;7432;48.728;9.154;2023-04-30T08:16:53;146405.88;;;18.86;47.54
14689;BME280;7432;48.728;9.154;2023-04-30T08:19:20;146217.13;;;18.08;50.14
14689;BME280;7432;48.728;9.154;2023-04-30T08:21:46;146024.84;;;17.28;51.36
14689;BME280;7432;48.728;9.154;2023-04-30T08:24:12;145933.63;;;16.90;52.66
14689;BME280;7432;48.728;9.154;2023-04-30T08:26:39;145825.34;;;16.45;53.41
14689;BME280;7432;48.728;9.154;2023-04-30T08:29:05;145881.34;;;16.69;54.03
14689;BME280;7432;48.728;9.154;2023-04-30T08:31:32;145909.31;;;16.80;54.26
14689;BME280;7432;48.728;9.154;2023-04-30T08:34:00;145797.38;;;16.34;54.27
14689;BME280;7432;48.728;9.154;2023-04-30T08:36:26;145793.75;;;16.32;54.15
14689;BME280;7432;48.728;9.154;2023-04-30T08:38:53;145837.50;;;16.50;52.76
14689;BME280;7432;48.728;9.154;2023-04-30T08:41:22;145948.22;;;16.96;52.22
14689;BME280;7432;48.728;9.154;2023-04-30T08:43:52;145819.28;;;16.43;53.32
14689;BME280;7432;48.728;9.154;2023-04-30T08:46:19;145696.53;;;15.92;53.28
14689;BME280;7432;48.728;9.154;2023-04-30T08:48:45;145612.72;;;15.57;54.68
14689;BME280;7432;48.728;9.154;2023-04-30T08:51:14;145616.34;;;15.59;54.13
14689;BME280;7432;48.728;9.154;2023-04-30T08:53:41;145998.06;;;17.17;51.01
14689;BME280;7432;48.728;9.154;2023-04-30T08:56:09;146180.59;;;17.93;47.90
14689;BME280;7432;48.728;9.154;2023-04-30T08:58:35;146072.28;;;17.48;49.38
14689;BME280;7432;48.728;9.154;2023-04-30T09:01:06;145932.41;;;16.90;49.93
14689;BME280;7432;48.728;9.154;2023-04-30T09:03:32;145791.31;;;16.31;50.63
14689;BME280;7432;48.728;9.154;2023-04-30T09:05:59;145750.00;;;16.14;50.88
14689;BME280;7432;48.728;9.154;2023-04-30T09:08:43;145658.88;;;15.76;52.49
14689;BME280;7432;48.728;9.154;2023-04-30T09:11:21;145534.88;;;15.25;53.20
14689;BME280;7432;48.728;9.154;2023-04-30T09:13:49;145499.69;;;15.10;53.52
14689;BME280;7432;48.728;9.154;2023-04-30T09:16:17;145562.84;;;15.36;52.60
14689;BME280;7432;48.728;9.154;2023-04-30T09:18:44;145528.81;;;15.22;52.81
14689;BME280;7432;48.728;9.154;2023-04-30T09:21:10;145573.75;;;15.41;53.06
14689;BME280;7432;48.728;9.154;2023-04-30T09:23:54;145663.72;;;15.78;52.36
14689;BME280;7432;48.728;9.154;2023-04-30T09:26:25;145767.00;;;16.21;51.13
14689;BME280;7432;48.728;9.154;2023-04-30T09:28:56;145785.22;;;16.29;51.62
14689;BME280;7432;48.728;9.154;2023-04-30T09:31:23;145814.41;;;16.41;48.48
14689;BME280;7432;48.728;9.154;2023-04-30T09:33:51;145846.06;;;16.54;49.89
14689;BME280;7432;48.728;9.154;2023-04-30T09:36:17;145775.53;;;16.25;50.18
14689;BME280;7432;48.728;9.154;2023-04-30T09:38:44;145764.56;;;16.20;51.51
14689;BME280;7432;48.728;9.154;2023-04-30T09:41:22;145632.16;;;15.65;49.79
14689;BME280;7432;48.728;9.154;2023-04-30T09:43:49;145596.91;;;15.51;50.67
14689;BME280;7432;48.728;9.154;2023-04-30T09:46:18;145663.72;;;15.78;51.41
14689;BME280;7432;48.728;9.154;2023-04-30T09:48:45;145732.97;;;16.07;50.65
14689;BME280;7432;48.728;9.154;2023-04-30T09:51:11;145767.00;;;16.21;50.56
14689;BME280;7432;48.728;9.154;2023-04-30T09:53:39;145785.22;;;16.29;49.76
14689;BME280;7432;48.728;9.154;2023-04-30T09:56:07;145752.41;;;16.15;51.21
14689;BME280;7432;48.728;9.154;2023-04-30T09:58:36;145809.56;;;16.39;49.53
14689;BME280;7432;48.728;9.154;2023-04-30T10:01:04;145822.94;;;16.44;48.77
14689;BME280;7432;48.728;9.154;2023-04-30T10:03:32;145813.19;;;16.40;49.22
14689;BME280;7432;48.728;9.154;2023-04-30T10:05:59;145703.81;;;15.95;49.50
14689;BME280;7432;48.728;9.154;2023-04-30T10:08:29;145705.06;;;15.95;50.04
14689;BME280;7432;48.728;9.154;2023-04-30T10:10:58;145695.31;;;15.91;48.89
14689;BME280;7432;48.728;9.154;2023-04-30T10:13:27;145638.22;;;15.68;48.82
14689;BME280;7432;48.728;9.154;2023-04-30T10:15:58;145652.75;;;15.74;49.92
14689;BME280;7432;48.728;9.154;2023-04-30T10:18:30;145703.81;;;15.95;51.03
14689;BME280;7432;48.728;9.154;2023-04-30T10:21:02;145743.94;;;16.12;49.49
14689;BME280;7432;48.728;9.154;2023-04-30T10:23:34;145782.81;;;16.28;49.07
14689;BME280;7432;48.728;9.154;2023-04-30T10:26:02;145814.41;;;16.41;48.72
14689;BME280;7432;48.728;9.154;2023-04-30T10:28:29;145824.13;;;16.45;48.85
14689;BME280;7432;48.728;9.154;2023-04-30T10:30:59;145802.28;;;16.36;48.56
14689;BME280;7432;48.728;9.154;2023-04-30T10:33:31;145819.28;;;16.43;48.66
14689;BME280;7432;48.728;9.154;2023-04-30T10:36:01;145880.13;;;16.68;49.36
14689;BME280;7432;48.728;9.154;2023-04-30T10:38:30;145925.09;;;16.87;47.20
14689;BME280;7432;48.728;9.154;2023-04-30T10:40:59;146009.00;;;17.22;47.93
14689;BME280;7432;48.728;9.154;2023-04-30T10:43:26;146119.78;;;17.67;47.60
14689;BME280;7432;48.728;9.154;2023-04-30T10:45:56;146197.66;;;18.00;44.48
14689;BME280;7432;48.728;9.154;2023-04-30T10:48:23;146176.97;;;17.91;45.98
14689;BME280;7432;48.728;9.154;2023-04-30T10:50:54;146084.44;;;17.53;45.57
14689;BME280;7432;48.728;9.154;2023-04-30T10:53:20;145995.63;;;17.16;45.67
14689;BME280;7432;48.728;9.154;2023-04-30T10:55:52;145911.72;;;16.81;46.07
14689;BME280;7432;48.728;9.154;2023-04-30T10:58:23;145916.56;;;16.83;46.72
14689;BME280;7432;48.728;9.154;2023-04-30T11:00:50;145916.56;;;16.83;48.03
14689;BME280;7432;48.728;9.154;2023-04-30T11:03:27;145948.22;;;16.96;48.01
14689;BME280;7432;48.728;9.154;2023-04-30T11:05:53;145855.81;;;16.58;47.76
14689;BME280;7432;48.728;9.154;2023-04-30T11:08:31;145847.28;;;16.54;49.00
14689;BME280;7432;48.728;9.154;2023-04-30T11:10:58;145739.03;;;16.10;48.69
14689;BME280;7432;48.728;9.154;2023-04-30T11:13:26;145765.78;;;16.21;48.54
14689;BME280;7432;48.728;9.154;2023-04-30T11:15:52;145773.09;;;16.24;49.12
14689;BME280;7432;48.728;9.154;2023-04-30T11:18:19;145798.59;;;16.34;48.94
14689;BME280;7432;48.728;9.154;2023-04-30T11:20:50;145831.41;;;16.48;48.72
14689;BME280;7432;48.728;9.154;2023-04-30T11:23:21;145807.13;;;16.38;48.69
14689;BME280;7432;48.728;9.154;2023-04-30T11:25:48;145790.13;;;16.31;49.63
14689;BME280;7432;48.728;9.154;2023-04-30T11:28:16;145726.91;;;16.05;49.38
14689;BME280;7432;48.728;9.154;2023-04-30T11:30:50;145746.34;;;16.13;49.07
14689;BME280;7432;48.728;9.154;2023-04-30T11:33:17;145706.22;;;15.96;50.37
14689;BME280;7432;48.728;9.154;2023-04-30T11:35:44;145672.25;;;15.82;49.24
14689;BME280;7432;48.728;9.154;2023-04-30T11:38:12;145675.88;;;15.83;48.79
14689;BME280;7432;48.728;9.154;2023-04-30T11:40:40;145702.59;;;15.94;48.90
14689;BME280;7432;48.728;9.154;2023-04-30T11:43:07;145767.00;;;16.21;48.86
14689;BME280;7432;48.728;9.154;2023-04-30T11:45:57;145864.28;;;16.62;48.80
14689;BME280;7432;48.728;9.154;2023-04-30T11:48:24;145894.72;;;16.74;46.92
14689;BME280;7432;48.728;9.154;2023-04-30T11:50:55;145923.88;;;16.86;46.04
14689;BME280;7432;48.728;9.154;2023-04-30T11:53:27;145816.88;;;16.42;46.30
14689;BME280;7432;48.728;9.154;2023-04-30T11:55:53;145867.97;;;16.63;45.92
14689;BME280;7432;48.728;9.154;2023-04-30T11:58:20;145864.28;;;16.62;46.39
14689;BME280;7432;48.728;9.154;2023-04-30T12:00:47;145912.94;;;16.82;47.43
14689;BME280;7432;48.728;9.154;2023-04-30T12:03:16;146006.59;;;17.21;46.44
14689;BME280;7432;48.728;9.154;2023-04-30T12:05:45;146113.72;;;17.65;45.91
14689;BME280;7432;48.728;9.154;2023-04-30T12:08:11;146068.59;;;17.46;45.33
14689;BME280;7432;48.728;9.154;2023-04-30T12:10:39;146122.19;;;17.68;46.23
14689;BME280;7432;48.728;9.154;2023-04-30T12:13:05;146075.91;;;17.49;45.38
14689;BME280;7432;48.728;9.154;2023-04-30T12:15:32;146039.44;;;17.34;46.28
14689;BME280;7432;48.728;9.154;2023-04-30T12:17:58;146095.44;;;17.57;45.17
14689;BME280;7432;48.728;9.154;2023-04-30T12:20:26;146016.31;;;17.25;45.33
14689;BME280;7432;48.728;9.154;2023-04-30T12:22:53;146015.06;;;17.24;45.57
14689;BME280;7432;48.728;9.154;2023-04-30T12:25:21;146000.53;;;17.18;45.51
14689;BME280;7432;48.728;9.154;2023-04-30T12:27:50;145948.22;;;16.96;45.94
14689;BME280;7432;48.728;9.154;2023-04-30T12:30:18;146033.38;;;17.32;46.50
14689;BME280;7432;48.728;9.154;2023-04-30T12:32:48;146029.69;;;17.30;44.86
14689;BME280;7432;48.728;9.154;2023-04-30T12:35:17;146043.06;;;17.36;46.62
14689;BME280;7432;48.728;9.154;2023-04-30T12:37:44;146045.50;;;17.37;44.51
14689;BME280;7432;48.728;9.154;2023-04-30T12:40:11;146064.97;;;17.45;45.19
14689;BME280;7432;48.728;9.154;2023-04-30T12:42:38;146050.38;;;17.39;45.49
14689;BME280;7432;48.728;9.154;2023-04-30T12:45:07;145977.38;;;17.08;45.37
14689;BME280;7432;48.728;9.154;2023-04-30T12:47:37;145956.69;;;17.00;45.53
14689;BME280;7432;48.728;9.154;2023-04-30T12:50:08;145920.25;;;16.85;46.08
14689;BME280;7432;48.728;9.154;2023-04-30T12:52:34;145923.88;;;16.86;46.67
14689;BME280;7432;48.728;9.154;2023-04-30T12:55:13;145827.78;;;16.46;48.18
14689;BME280;7432;48.728;9.154;2023-04-30T12:57:40;145852.13;;;16.56;48.64
14689;BME280;7432;48.728;9.154;2023-04-30T13:00:08;145863.13;;;16.61;48.39
14689;BME280;7432;48.728;9.154;2023-04-30T13:02:35;145938.47;;;16.92;48.10
14689;BME280;7432;48.728;9.154;2023-04-30T13:05:01;145998.06;;;17.17;46.92
14689;BME280;7432;48.728;9.154;2023-04-30T13:07:35;146043.06;;;17.36;47.35